sensor_id;sensor_type;location;lat;lon;timestamp;pressure;altitude;pressure_sealevel;temperature
4421;BMP180;11824;51.178;13.546;2023-06-22T00:02:27;100572.00;;;20.60
4421;BMP180;11824;51.178;13.546;2023-06-22T00:04:54;100571.00;;;20.50
4421;BMP180;11824;51.178;13.546;2023-06-22T00:07:22;100574.00;;;20.50
4421;BMP180;11824;51.178;13.546;2023-06-22T00:09:53;100576.00;;;20.50
4421;BMP180;11824;51.178;13.546;2023-06-22T00:12:20;100575.00;;;20.40
4421;BMP180;11824;51.178;13.546;2023-06-22T00:14:47;100593.00;;;20.40
4421;BMP180;11824;51.178;13.546;2023-06-22T00:17:15;100596.00;;;20.40
4421;BMP180;11824;51.178;13.546;2023-06-22T00:19:47;100601.00;;;20.30
4421;BMP180;11824;51.178;13.546;2023-06-22T00:22:20;100596.00;;;20.30
4421;BMP180;11824;51.178;13.546;2023-06-22T00:24:55;100605.00;;;20.30
4421;BMP180;11824;51.178;13.546;2023-06-22T00:27:25;100605.00;;;20.30
4421;BMP180;11824;51.178;13.546;2023-06-22T00:29:56;100608.00;;;20.30
4421;BMP180;11824;51.178;13.546;2023-06-22T00:32:23;100610.00;;;20.30
4421;BMP180;11824;51.178;13.546;2023-06-22T00:34:51;100612.00;;;20.30
4421;BMP180;11824;51.178;13.546;2023-06-22T00:37:20;100604.00;;;20.30
4421;BMP180;11824;51.178;13.546;2023-06-22T00:39:52;100606.00;;;20.30
4421;BMP180;11824;51.178;13.546;2023-06-22T00:42:20;100605.00;;;20.30
4421;BMP180;11824;51.178;13.546;2023-06-22T00:44:47;100605.00;;;20.20
4421;BMP180;11824;51.178;13.546;2023-06-22T00:47:17;100605.00;;;20.20
4421;BMP180;11824;51.178;13.546;2023-06-22T00:49:47;100601.00;;;20.20
4421;BMP180;11824;51.178;13.546;2023-06-22T00:52:15;100593.00;;;20.20
4421;BMP180;11824;51.178;13.546;2023-06-22T00:54:47;100595.00;;;20.10
4421;BMP180;11824;51.178;13.546;2023-06-22T00:57:15;100592.00;;;20.10
4421;BMP180;11824;51.178;13.546;2023-06-22T00:59:45;100597.00;;;20.10
4421;BMP180;11824;51.178;13.546;2023-06-22T01:02:12;100591.00;;;20.10
4421;BMP180;11824;51.178;13.546;2023-06-22T01:04:40;100594.00;;;20.00
4421;BMP180;11824;51.178;13.546;2023-06-22T01:07:13;100593.00;;;20.00
4421;BMP180;11824;51.178;13.546;2023-06-22T01:09:51;100592.00;;;20.00
4421;BMP180;11824;51.178;13.546;2023-06-22T01:12:20;100587.00;;;20.00
4421;BMP180;11824;51.178;13.546;2023-06-22T01:14:53;100583.00;;;20.00
4421;BMP180;11824;51.178;13.546;2023-06-22T01:17:22;100580.00;;;19.90
4421;BMP180;11824;51.178;13.546;2023-06-22T01:19:51;100577.00;;;19.90
4421;BMP180;11824;51.178;13.546;2023-06-22T01:22:24;100587.00;;;19.90
4421;BMP180;11824;51.178;13.546;2023-06-22T01:25:00;100582.00;;;19.90
4421;BMP180;11824;51.178;13.546;2023-06-22T01:27:40;100575.00;;;19.80
4421;BMP180;11824;51.178;13.546;2023-06-22T01:30:16;100580.00;;;19.80
4421;BMP180;11824;51.178;13.546;2023-06-22T01:32:46;100581.00;;;19.80
4421;BMP180;11824;51.178;13.546;2023-06-22T01:35:16;100580.00;;;19.80
4421;BMP180;11824;51.178;13.546;2023-06-22T01:37:44;100570.00;;;19.70
4421;BMP180;11824;51.178;13.546;2023-06-22T01:40:19;100572.00;;;19.70
4421;BMP180;11824;51.178;13.546;2023-06-22T01:42:47;100575.00;;;19.70
4421;BMP180;11824;51.178;13.546;2023-06-22T01:45:16;100577.00;;;19.70
4421;BMP180;11824;51.178;13.546;2023-06-22T01:47:44;100576.00;;;19.70
4421;BMP180;11824;51.178;13.546;2023-06-22T01:50:13;100570.00;;;19.60
4421;BMP180;11824;51.178;13.546;2023-06-22T01:52:40;100573.00;;;19.60
4421;BMP180;11824;51.178;13.546;2023-06-22T01:55:08;100574.00;;;19.60
4421;BMP180;11824;51.178;13.546;2023-06-22T01:57:36;100577.00;;;19.60
4421;BMP180;11824;51.178;13.546;2023-06-22T02:00:06;100578.00;;;19.50
4421;BMP180;11824;51.178;13.546;2023-06-22T02:02:38;100577.00;;;19.50
4421;BMP180;11824;51.178;13.546;2023-06-22T02:05:09;100574.00;;;19.50
4421;BMP180;11824;51.178;13.546;2023-06-22T02:07:44;100587.00;;;19.50
4421;BMP180;11824;51.178;13.546;2023-06-22T02:10:14;100569.00;;;19.50
4421;BMP180;11824;51.178;13.546;2023-06-22T02:12:43;100566.00;;;19.50
4421;BMP180;11824;51.178;13.546;2023-06-22T02:15:12;100570.00;;;19.50
4421;BMP180;11824;51.178;13.546;2023-06-22T02:17:42;100575.00;;;19.40
4421;BMP180;11824;51.178;13.546;2023-06-22T02:20:13;100572.00;;;19.40
4421;BMP180;11824;51.178;13.546;2023-06-22T02:22:41;100566.00;;;19.40
4421;BMP180;11824;51.178;13.546;2023-06-22T02:25:08;100573.00;;;19.40
4421;BMP180;11824;51.178;13.546;2023-06-22T02:27:36;100583.00;;;19.40
4421;BMP180;11824;51.178;13.546;2023-06-22T02:30:08;100588.00;;;19.40
4421;BMP180;11824;51.178;13.546;2023-06-22T02:32:36;100581.00;;;19.30
4421;BMP180;11824;51.178;13.546;2023-06-22T02:35:04;100586.00;;;19.30
4421;BMP180;11824;51.178;13.546;2023-06-22T02:37:33;100594.00;;;19.30
4421;BMP180;11824;51.178;13.546;2023-06-22T02:40:00;100595.00;;;19.30
4421;BMP180;11824;51.178;13.546;2023-06-22T02:42:28;100593.00;;;19.30
4421;BMP180;11824;51.178;13.546;2023-06-22T02:44:55;100596.00;;;19.30
4421;BMP180;11824;51.178;13.546;2023-06-22T02:47:22;100601.00;;;19.20
4421;BMP180;11824;51.178;13.546;2023-06-22T02:49:50;100605.00;;;19.20
4421;BMP180;11824;51.178;13.546;2023-06-22T02:52:18;100599.00;;;19.20
4421;BMP180;11824;51.178;13.546;2023-06-22T02:54:45;100594.00;;;19.20
4421;BMP180;11824;51.178;13.546;2023-06-22T02:57:13;100598.00;;;19.20
4421;BMP180;11824;51.178;13.546;2023-06-22T02:59:40;100588.00;;;19.20
4421;BMP180;11824;51.178;13.546;2023-06-22T03:02:09;100594.00;;;19.20
4421;BMP180;11824;51.178;13.546;2023-06-22T03:04:36;100596.00;;;19.20
4421;BMP180;11824;51.178;13.546;2023-06-22T03:07:04;100592.00;;;19.20
4421;BMP180;11824;51.178;13.546;2023-06-22T03:09:34;100592.00;;;19.20
4421;BMP180;11824;51.178;13.546;2023-06-22T03:12:01;100580.00;;;19.30
4421;BMP180;11824;51.178;13.546;2023-06-22T03:14:29;100571.00;;;19.30
4421;BMP180;11824;51.178;13.546;2023-06-22T03:16:56;100558.00;;;19.30
4421;BMP180;11824;51.178;13.546;2023-06-22T03:19:29;100568.00;;;19.40
4421;BMP180;11824;51.178;13.546;2023-06-22T03:21:59;100563.00;;;19.40
4421;BMP180;11824;51.178;13.546;2023-06-22T03:24:26;100568.00;;;19.40
4421;BMP180;11824;51.178;13.546;2023-06-22T03:26:56;100555.00;;;19.50
4421;BMP180;11824;51.178;13.546;2023-06-22T03:29:23;100567.00;;;19.60
4421;BMP180;11824;51.178;13.546;2023-06-22T03:31:51;100576.00;;;19.60
4421;BMP180;11824;51.178;13.546;2023-06-22T03:34:19;100576.00;;;19.70
4421;BMP180;11824;51.178;13.546;2023-06-22T03:36:46;100570.00;;;19.80
4421;BMP180;11824;51.178;13.546;2023-06-22T03:39:14;100566.00;;;19.90
4421;BMP180;11824;51.178;13.546;2023-06-22T03:41:41;100570.00;;;20.00
4421;BMP180;11824;51.178;13.546;2023-06-22T03:44:09;100560.00;;;20.10
4421;BMP180;11824;51.178;13.546;2023-06-22T03:46:39;100553.00;;;20.10
4421;BMP180;11824;51.178;13.546;2023-06-22T03:49:06;100549.00;;;20.20
4421;BMP180;11824;51.178;13.546;2023-06-22T03:51:34;100559.00;;;20.30
4421;BMP180;11824;51.178;13.546;2023-06-22T03:54:01;100564.00;;;20.30
4421;BMP180;11824;51.178;13.546;2023-06-22T03:56:29;100560.00;;;20.40
4421;BMP180;11824;51.178;13.546;2023-06-22T03:58:56;100566.00;;;20.50
4421;BMP180;11824;51.178;13.546;2023-06-22T04:01:24;100561.00;;;20.70
4421;BMP180;11824;51.178;13.546;2023-06-22T04:03:52;100561.00;;;20.80
4421;BMP180;11824;51.178;13.546;2023-06-22T04:06:19;100570.00;;;21.00
4421;BMP180;11824;51.178;13.546;2023-06-22T04:08:47;100582.00;;;21.10
4421;BMP180;11824;51.178;13.546;2023-06-22T04:11:17;100589.00;;;21.30
4421;BMP180;11824;51.178;13.546;2023-06-22T04:13:45;100597.00;;;21.40
4421;BMP180;11824;51.178;13.546;2023-06-22T04:16:12;100599.00;;;21.60
4421;BMP180;11824;51.178;13.546;2023-06-22T04:18:40;100604.00;;;21.90
4421;BMP180;11824;51.178;13.546;2023-06-22T04:21:09;100598.00;;;22.20
4421;BMP180;11824;51.178;13.546;2023-06-22T04:23:37;100592.00;;;22.50
4421;BMP180;11824;51.178;13.546;2023-06-22T04:26:04;100588.00;;;22.70
4421;BMP180;11824;51.178;13.546;2023-06-22T04:28:32;100583.00;;;22.90
4421;BMP180;11824;51.178;13.546;2023-06-22T04:31:02;100595.00;;;23.20
4421;BMP180;11824;51.178;13.546;2023-06-22T04:33:29;100608.00;;;23.40
4421;BMP180;11824;51.178;13.546;2023-06-22T04:35:57;100613.00;;;23.70
4421;BMP180;11824;51.178;13.546;2023-06-22T04:38:25;100623.00;;;24.10
4421;BMP180;11824;51.178;13.546;2023-06-22T04:40:53;100626.00;;;24.50
4421;BMP180;11824;51.178;13.546;2023-06-22T04:43:20;100623.00;;;25.00
4421;BMP180;11824;51.178;13.546;2023-06-22T04:45:48;100627.00;;;25.50
4421;BMP180;11824;51.178;13.546;2023-06-22T04:48:19;100640.00;;;26.10
4421;BMP180;11824;51.178;13.546;2023-06-22T04:50:46;100653.00;;;26.60
4421;BMP180;11824;51.178;13.546;2023-06-22T04:53:14;100658.00;;;27.00
4421;BMP180;11824;51.178;13.546;2023-06-22T04:55:42;100672.00;;;27.40
4421;BMP180;11824;51.178;13.546;2023-06-22T04:58:12;100669.00;;;27.80
4421;BMP180;11824;51.178;13.546;2023-06-22T05:00:39;100668.00;;;28.20
4421;BMP180;11824;51.178;13.546;2023-06-22T05:03:07;100673.00;;;28.70
4421;BMP180;11824;51.178;13.546;2023-06-22T05:05:44;100678.00;;;29.10
4421;BMP180;11824;51.178;13.546;2023-06-22T05:08:13;100684.00;;;29.50
4421;BMP180;11824;51.178;13.546;2023-06-22T05:10:40;100693.00;;;29.90
4421;BMP180;11824;51.178;13.546;2023-06-22T05:13:25;100699.00;;;30.20
4421;BMP180;11824;51.178;13.546;2023-06-22T05:15:53;100697.00;;;30.30
4421;BMP180;11824;51.178;13.546;2023-06-22T05:18:29;100692.00;;;30.60
4421;BMP180;11824;51.178;13.546;2023-06-22T05:20:57;100696.00;;;30.90
4421;BMP180;11824;51.178;13.546;2023-06-22T05:23:25;100702.00;;;31.30
4421;BMP180;11824;51.178;13.546;2023-06-22T05:25:53;100692.00;;;31.60
4421;BMP180;11824;51.178;13.546;2023-06-22T05:28:21;100693.00;;;31.90
4421;BMP180;11824;51.178;13.546;2023-06-22T05:30:49;100689.00;;;32.30
4421;BMP180;11824;51.178;13.546;2023-06-22T05:33:17;100678.00;;;32.60
4421;BMP180;11824;51.178;13.546;2023-06-22T05:35:44;100678.00;;;32.80
4421;BMP180;11824;51.178;13.546;2023-06-22T05:38:12;100674.00;;;33.00
4421;BMP180;11824;51.178;13.546;2023-06-22T05:40:40;100677.00;;;33.30
4421;BMP180;11824;51.178;13.546;2023-06-22T05:43:07;100670.00;;;33.40
4421;BMP180;11824;51.178;13.546;2023-06-22T05:45:35;100676.00;;;33.60
4421;BMP180;11824;51.178;13.546;2023-06-22T05:48:02;100686.00;;;33.70
4421;BMP180;11824;51.178;13.546;2023-06-22T05:50:30;100694.00;;;33.70
4421;BMP180;11824;51.178;13.546;2023-06-22T05:52:58;100683.00;;;33.90
4421;BMP180;11824;51.178;13.546;2023-06-22T05:55:25;100670.00;;;34.10
4421;BMP180;11824;51.178;13.546;2023-06-22T05:57:53;100667.00;;;34.30
4421;BMP180;11824;51.178;13.546;2023-06-22T06:00:21;100657.00;;;34.50
4421;BMP180;11824;51.178;13.546;2023-06-22T06:02:50;100655.00;;;34.60
4421;BMP180;11824;51.178;13.546;2023-06-22T06:05:17;100651.00;;;34.80
4421;BMP180;11824;51.178;13.546;2023-06-22T06:07:46;100647.00;;;35.00
4421;BMP180;11824;51.178;13.546;2023-06-22T06:10:14;100649.00;;;35.20
4421;BMP180;11824;51.178;13.546;2023-06-22T06:12:41;100649.00;;;35.50
4421;BMP180;11824;51.178;13.546;2023-06-22T06:15:10;100644.00;;;35.80
4421;BMP180;11824;51.178;13.546;2023-06-22T06:17:46;100628.00;;;36.10
4421;BMP180;11824;51.178;13.546;2023-06-22T06:20:13;100600.00;;;36.40
4421;BMP180;11824;51.178;13.546;2023-06-22T06:22:41;100571.00;;;36.50
4421;BMP180;11824;51.178;13.546;2023-06-22T06:25:10;100561.00;;;35.80
4421;BMP180;11824;51.178;13.546;2023-06-22T06:27:43;100575.00;;;35.00
4421;BMP180;11824;51.178;13.546;2023-06-22T06:30:12;100576.00;;;34.20
4421;BMP180;11824;51.178;13.546;2023-06-22T06:32:41;100572.00;;;33.60
4421;BMP180;11824;51.178;13.546;2023-06-22T06:35:10;100568.00;;;33.10
4421;BMP180;11824;51.178;13.546;2023-06-22T06:37:39;100555.00;;;32.50
4421;BMP180;11824;51.178;13.546;2023-06-22T06:40:07;100545.00;;;31.90
4421;BMP180;11824;51.178;13.546;2023-06-22T06:42:37;100546.00;;;31.40
4421;BMP180;11824;51.178;13.546;2023-06-22T06:45:06;100552.00;;;31.10
4421;BMP180;11824;51.178;13.546;2023-06-22T06:47:34;100558.00;;;31.00
4421;BMP180;11824;51.178;13.546;2023-06-22T06:50:02;100557.00;;;31.00
4421;BMP180;11824;51.178;13.546;2023-06-22T06:52:29;100563.00;;;30.90
4421;BMP180;11824;51.178;13.546;2023-06-22T06:54:56;100559.00;;;31.10
4421;BMP180;11824;51.178;13.546;2023-06-22T06:57:24;100572.00;;;31.50
4421;BMP180;11824;51.178;13.546;2023-06-22T06:59:55;100566.00;;;31.60
4421;BMP180;11824;51.178;13.546;2023-06-22T07:02:23;100579.00;;;31.80
4421;BMP180;11824;51.178;13.546;2023-06-22T07:04:51;100577.00;;;32.00
4421;BMP180;11824;51.178;13.546;2023-06-22T07:07:19;100588.00;;;32.30
4421;BMP180;11824;51.178;13.546;2023-06-22T07:09:46;100579.00;;;32.50
4421;BMP180;11824;51.178;13.546;2023-06-22T07:12:13;100582.00;;;32.70
4421;BMP180;11824;51.178;13.546;2023-06-22T07:14:41;100576.00;;;32.90
4421;BMP180;11824;51.178;13.546;2023-06-22T07:17:08;100578.00;;;33.00
4421;BMP180;11824;51.178;13.546;2023-06-22T07:19:38;100581.00;;;33.10
4421;BMP180;11824;51.178;13.546;2023-06-22T07:22:06;100583.00;;;33.20
4421;BMP180;11824;51.178;13.546;2023-06-22T07:24:34;100592.00;;;33.20
4421;BMP180;11824;51.178;13.546;2023-06-22T07:27:04;100587.00;;;33.10
4421;BMP180;11824;51.178;13.546;2023-06-22T07:29:33;100588.00;;;32.70
4421;BMP180;11824;51.178;13.546;2023-06-22T07:32:00;100588.00;;;32.40
4421;BMP180;11824;51.178;13.546;2023-06-22T07:34:31;100573.00;;;32.00
4421;BMP180;11824;51.178;13.546;2023-06-22T07:36:59;100577.00;;;31.70
4421;BMP180;11824;51.178;13.546;2023-06-22T07:39:27;100572.00;;;31.50
4421;BMP180;11824;51.178;13.546;2023-06-22T07:41:55;100573.00;;;31.40
4421;BMP180;11824;51.178;13.546;2023-06-22T07:44:22;100577.00;;;31.40
4421;BMP180;11824;51.178;13.546;2023-06-22T07:46:49;100566.00;;;31.40
4421;BMP180;11824;51.178;13.546;2023-06-22T07:49:18;100575.00;;;31.30
4421;BMP180;11824;51.178;13.546;2023-06-22T07:51:45;100570.00;;;31.20
4421;BMP180;11824;51.178;13.546;2023-06-22T07:54:12;100575.00;;;31.20
4421;BMP180;11824;51.178;13.546;2023-06-22T07:56:43;100572.00;;;31.10
4421;BMP180;11824;51.178;13.546;2023-06-22T07:59:10;100566.00;;;31.10
4421;BMP180;11824;51.178;13.546;2023-06-22T08:01:38;100560.00;;;31.10
4421;BMP180;11824;51.178;13.546;2023-06-22T08:04:05;100570.00;;;31.00
4421;BMP180;11824;51.178;13.546;2023-06-22T08:06:33;100568.00;;;31.00
4421;BMP180;11824;51.178;13.546;2023-06-22T08:09:00;100565.00;;;31.00
4421;BMP180;11824;51.178;13.546;2023-06-22T08:11:28;100564.00;;;31.10
4421;BMP180;11824;51.178;13.546;2023-06-22T08:13:56;100555.00;;;31.10
4421;BMP180;11824;51.178;13.546;2023-06-22T08:16:25;100568.00;;;31.20
4421;BMP180;11824;51.178;13.546;2023-06-22T08:18:52;100550.00;;;31.20
4421;BMP180;11824;51.178;13.546;2023-06-22T08:21:20;100545.00;;;31.20
4421;BMP180;11824;51.178;13.546;2023-06-22T08:23:48;100548.00;;;31.30
4421;BMP180;11824;51.178;13.546;2023-06-22T08:26:16;100548.00;;;31.40
4421;BMP180;11824;51.178;13.546;2023-06-22T08:28:43;100543.00;;;31.40
4421;BMP180;11824;51.178;13.546;2023-06-22T08:31:11;100547.00;;;31.40
4421;BMP180;11824;51.178;13.546;2023-06-22T08:33:40;100547.00;;;31.40
4421;BMP180;11824;51.178;13.546;2023-06-22T08:36:16;100543.00;;;31.50
4421;BMP180;11824;51.178;13.546;2023-06-22T08:38:43;100543.00;;;31.60
4421;BMP180;11824;51.178;13.546;2023-06-22T08:41:11;100538.00;;;31.60
4421;BMP180;11824;51.178;13.546;2023-06-22T08:43:39;100538.00;;;31.70
4421;BMP180;11824;51.178;13.546;2023-06-22T08:46:06;100533.00;;;31.70
4421;BMP180;11824;51.178;13.546;2023-06-22T08:48:34;100534.00;;;31.60
4421;BMP180;11824;51.178;13.546;2023-06-22T08:51:02;100537.00;;;31.50
4421;BMP180;11824;51.178;13.546;2023-06-22T08:53:30;100534.00;;;31.60
4421;BMP180;11824;51.178;13.546;2023-06-22T08:55:57;100530.00;;;31.60
4421;BMP180;11824;51.178;13.546;2023-06-22T08:58:24;100534.00;;;31.60
4421;BMP180;11824;51.178;13.546;2023-06-22T09:00:52;100538.00;;;31.50
4421;BMP180;11824;51.178;13.546;2023-06-22T09:03:19;100531.00;;;31.40
4421;BMP180;11824;51.178;13.546;2023-06-22T09:05:48;100525.00;;;31.30
4421;BMP180;11824;51.178;13.546;2023-06-22T09:08:16;100530.00;;;31.10
4421;BMP180;11824;51.178;13.546;2023-06-22T09:10:43;100529.00;;;31.10
4421;BMP180;11824;51.178;13.546;2023-06-22T09:13:10;100532.00;;;31.10
4421;BMP180;11824;51.178;13.546;2023-06-22T09:15:38;100529.00;;;31.20
4421;BMP180;11824;51.178;13.546;2023-06-22T09:18:05;100516.00;;;31.30
4421;BMP180;11824;51.178;13.546;2023-06-22T09:20:33;100515.00;;;31.50
4421;BMP180;11824;51.178;13.546;2023-06-22T09:23:01;100517.00;;;31.50
4421;BMP180;11824;51.178;13.546;2023-06-22T09:25:29;100516.00;;;31.50
4421;BMP180;11824;51.178;13.546;2023-06-22T09:27:57;100510.00;;;31.50
4421;BMP180;11824;51.178;13.546;2023-06-22T09:30:25;100514.00;;;31.50
4421;BMP180;11824;51.178;13.546;2023-06-22T09:32:52;100504.00;;;31.50
4421;BMP180;11824;51.178;13.546;2023-06-22T09:35:21;100507.00;;;31.50
4421;BMP180;11824;51.178;13.546;2023-06-22T09:37:48;100506.00;;;31.60
4421;BMP180;11824;51.178;13.546;2023-06-22T09:40:16;100516.00;;;31.60
4421;BMP180;11824;51.178;13.546;2023-06-22T09:42:44;100509.00;;;31.70
4421;BMP180;11824;51.178;13.546;2023-06-22T09:45:11;100503.00;;;31.60
4421;BMP180;11824;51.178;13.546;2023-06-22T09:47:39;100509.00;;;31.50
4421;BMP180;11824;51.178;13.546;2023-06-22T09:50:07;100507.00;;;31.40
4421;BMP180;11824;51.178;13.546;2023-06-22T09:52:35;100498.00;;;31.30
4421;BMP180;11824;51.178;13.546;2023-06-22T09:55:08;100495.00;;;31.30
4421;BMP180;11824;51.178;13.546;2023-06-22T09:57:36;100494.00;;;31.30
4421;BMP180;11824;51.178;13.546;2023-06-22T10:00:05;100499.00;;;31.30
4421;BMP180;11824;51.178;13.546;2023-06-22T10:02:36;100491.00;;;31.20
4421;BMP180;11824;51.178;13.546;2023-06-22T10:05:04;100480.00;;;31.20
4421;BMP180;11824;51.178;13.546;2023-06-22T10:07:32;100481.00;;;31.30
4421;BMP180;11824;51.178;13.546;2023-06-22T10:10:00;100482.00;;;31.30
4421;BMP180;11824;51.178;13.546;2023-06-22T10:12:27;100484.00;;;31.20
4421;BMP180;11824;51.178;13.546;2023-06-22T10:14:55;100480.00;;;31.10
4421;BMP180;11824;51.178;13.546;2023-06-22T10:17:24;100476.00;;;31.10
4421;BMP180;11824;51.178;13.546;2023-06-22T10:19:51;100474.00;;;31.10
4421;BMP180;11824;51.178;13.546;2023-06-22T10:22:19;100481.00;;;31.20
4421;BMP180;11824;51.178;13.546;2023-06-22T10:24:46;100473.00;;;31.20
4421;BMP180;11824;51.178;13.546;2023-06-22T10:27:14;100470.00;;;31.30
4421;BMP180;11824;51.178;13.546;2023-06-22T10:29:42;100472.00;;;31.40
4421;BMP180;11824;51.178;13.546;2023-06-22T10:32:10;100457.00;;;31.50
4421;BMP180;11824;51.178;13.546;2023-06-22T10:34:37;100469.00;;;31.70
4421;BMP180;11824;51.178;13.546;2023-06-22T10:37:05;100463.00;;;31.80
4421;BMP180;11824;51.178;13.546;2023-06-22T10:39:33;100458.00;;;31.90
4421;BMP180;11824;51.178;13.546;2023-06-22T10:42:00;100448.00;;;31.80
4421;BMP180;11824;51.178;13.546;2023-06-22T10:44:27;100444.00;;;31.60
4421;BMP180;11824;51.178;13.546;2023-06-22T10:46:55;100449.00;;;31.50
4421;BMP180;11824;51.178;13.546;2023-06-22T10:49:26;100440.00;;;31.50
4421;BMP180;11824;51.178;13.546;2023-06-22T10:51:54;100433.00;;;31.50
4421;BMP180;11824;51.178;13.546;2023-06-22T10:54:21;100435.00;;;31.50
4421;BMP180;11824;51.178;13.546;2023-06-22T10:56:49;100425.00;;;31.60
4421;BMP180;11824;51.178;13.546;2023-06-22T10:59:17;100426.00;;;31.60
4421;BMP180;11824;51.178;13.546;2023-06-22T11:01:44;100428.00;;;31.60
4421;BMP180;11824;51.178;13.546;2023-06-22T11:04:11;100420.00;;;31.60
4421;BMP180;11824;51.178;13.546;2023-06-22T11:06:40;100429.00;;;31.60
4421;BMP180;11824;51.178;13.546;2023-06-22T11:09:07;100426.00;;;31.70
4421;BMP180;11824;51.178;13.546;2023-06-22T11:11:38;100429.00;;;31.80
4421;BMP180;11824;51.178;13.546;2023-06-22T11:14:05;100423.00;;;31.90
4421;BMP180;11824;51.178;13.546;2023-06-22T11:16:33;100418.00;;;32.00
4421;BMP180;11824;51.178;13.546;2023-06-22T11:19:01;100419.00;;;32.20
4421;BMP180;11824;51.178;13.546;2023-06-22T11:21:29;100424.00;;;32.30
4421;BMP180;11824;51.178;13.546;2023-06-22T11:23:58;100422.00;;;32.40
4421;BMP180;11824;51.178;13.546;2023-06-22T11:26:26;100419.00;;;32.50
4421;BMP180;11824;51.178;13.546;2023-06-22T11:28:54;100416.00;;;32.60
4421;BMP180;11824;51.178;13.546;2023-06-22T11:31:21;100420.00;;;32.70
4421;BMP180;11824;51.178;13.546;2023-06-22T11:34:09;100406.00;;;32.70
4421;BMP180;11824;51.178;13.546;2023-06-22T11:36:36;100403.00;;;32.80
4421;BMP180;11824;51.178;13.546;2023-06-22T11:39:04;100408.00;;;32.90
4421;BMP180;11824;51.178;13.546;2023-06-22T11:41:32;100404.00;;;33.00
4421;BMP180;11824;51.178;13.546;2023-06-22T11:43:59;100396.00;;;33.10
4421;BMP180;11824;51.178;13.546;2023-06-22T11:46:27;100397.00;;;33.10
4421;BMP180;11824;51.178;13.546;2023-06-22T11:48:55;100395.00;;;33.10
4421;BMP180;11824;51.178;13.546;2023-06-22T11:51:22;100398.00;;;33.00
4421;BMP180;11824;51.178;13.546;2023-06-22T11:53:50;100386.00;;;32.90
4421;BMP180;11824;51.178;13.546;2023-06-22T11:56:18;100400.00;;;32.70
4421;BMP180;11824;51.178;13.546;2023-06-22T11:58:45;100394.00;;;32.60
4421;BMP180;11824;51.178;13.546;2023-06-22T12:01:13;100379.00;;;32.60
4421;BMP180;11824;51.178;13.546;2023-06-22T12:03:41;100378.00;;;32.60
4421;BMP180;11824;51.178;13.546;2023-06-22T12:06:10;100375.00;;;32.60
4421;BMP180;11824;51.178;13.546;2023-06-22T12:08:38;100370.00;;;32.60
4421;BMP180;11824;51.178;13.546;2023-06-22T12:11:07;100365.00;;;32.70
4421;BMP180;11824;51.178;13.546;2023-06-22T12:13:36;100352.00;;;32.70
4421;BMP180;11824;51.178;13.546;2023-06-22T12:16:04;100364.00;;;32.70
4421;BMP180;11824;51.178;13.546;2023-06-22T12:18:32;100353.00;;;32.80
4421;BMP180;11824;51.178;13.546;2023-06-22T12:20:59;100356.00;;;32.90
4421;BMP180;11824;51.178;13.546;2023-06-22T12:23:27;100359.00;;;32.90
4421;BMP180;11824;51.178;13.546;2023-06-22T12:25:54;100359.00;;;32.70
4421;BMP180;11824;51.178;13.546;2023-06-22T12:28:22;100355.00;;;32.60
4421;BMP180;11824;51.178;13.546;2023-06-22T12:30:51;100353.00;;;32.60
4421;BMP180;11824;51.178;13.546;2023-06-22T12:33:18;100355.00;;;32.60
4421;BMP180;11824;51.178;13.546;2023-06-22T12:35:46;100344.00;;;32.60
4421;BMP180;11824;51.178;13.546;2023-06-22T12:38:15;100330.00;;;32.70
4421;BMP180;11824;51.178;13.546;2023-06-22T12:40:43;100337.00;;;32.70
4421;BMP180;11824;51.178;13.546;2023-06-22T12:43:10;100320.00;;;32.80
4421;BMP180;11824;51.178;13.546;2023-06-22T12:45:37;100330.00;;;32.80
4421;BMP180;11824;51.178;13.546;2023-06-22T12:48:06;100322.00;;;32.80
4421;BMP180;11824;51.178;13.546;2023-06-22T12:50:35;100315.00;;;32.90
4421;BMP180;11824;51.178;13.546;2023-06-22T12:53:02;100313.00;;;33.00
4421;BMP180;11824;51.178;13.546;2023-06-22T12:55:30;100316.00;;;33.10
4421;BMP180;11824;51.178;13.546;2023-06-22T12:57:58;100311.00;;;33.10
4421;BMP180;11824;51.178;13.546;2023-06-22T13:00:25;100315.00;;;33.10
4421;BMP180;11824;51.178;13.546;2023-06-22T13:02:52;100306.00;;;33.00
4421;BMP180;11824;51.178;13.546;2023-06-22T13:05:23;100303.00;;;32.90
4421;BMP180;11824;51.178;13.546;2023-06-22T13:07:50;100304.00;;;32.80
4421;BMP180;11824;51.178;13.546;2023-06-22T13:10:18;100298.00;;;32.80
4421;BMP180;11824;51.178;13.546;2023-06-22T13:12:46;100300.00;;;32.70
4421;BMP180;11824;51.178;13.546;2023-06-22T13:15:13;100293.00;;;32.70
4421;BMP180;11824;51.178;13.546;2023-06-22T13:17:41;100290.00;;;32.80
4421;BMP180;11824;51.178;13.546;2023-06-22T13:20:09;100302.00;;;32.80
4421;BMP180;11824;51.178;13.546;2023-06-22T13:22:37;100295.00;;;32.70
4421;BMP180;11824;51.178;13.546;2023-06-22T13:25:07;100285.00;;;32.70
4421;BMP180;11824;51.178;13.546;2023-06-22T13:27:39;100286.00;;;32.70
4421;BMP180;11824;51.178;13.546;2023-06-22T13:30:07;100280.00;;;32.80
4421;BMP180;11824;51.178;13.546;2023-06-22T13:32:38;100277.00;;;32.90
4421;BMP180;11824;51.178;13.546;2023-06-22T13:35:08;100261.00;;;32.90
4421;BMP180;11824;51.178;13.546;2023-06-22T13:37:37;100268.00;;;32.90
4421;BMP180;11824;51.178;13.546;2023-06-22T13:40:05;100267.00;;;32.80
4421;BMP180;11824;51.178;13.546;2023-06-22T13:42:33;100253.00;;;32.80
4421;BMP180;11824;51.178;13.546;2023-06-22T13:45:00;100247.00;;;32.70
4421;BMP180;11824;51.178;13.546;2023-06-22T13:47:28;100249.00;;;32.70
4421;BMP180;11824;51.178;13.546;2023-06-22T13:49:57;100246.00;;;32.60
4421;BMP180;11824;51.178;13.546;2023-06-22T13:52:25;100240.00;;;32.50
4421;BMP180;11824;51.178;13.546;2023-06-22T13:54:53;100244.00;;;32.50
4421;BMP180;11824;51.178;13.546;2023-06-22T13:57:21;100235.00;;;32.40
4421;BMP180;11824;51.178;13.546;2023-06-22T13:59:48;100234.00;;;32.40
4421;BMP180;11824;51.178;13.546;2023-06-22T14:02:16;100234.00;;;32.30
4421;BMP180;11824;51.178;13.546;2023-06-22T14:04:43;100234.00;;;32.30